sensor_id;sensor_type;location;lat;lon;timestamp;pressure;altitude;pressure_sealevel;temperature;humidity
10948;BME280;5526;42.070;24.752;2023-05-25T00:00:17;98849.19;;;16.86;87.46
10948;BME280;5526;42.070;24.752;2023-05-25T00:02:45;98841.03;;;16.83;87.85
10948;BME280;5526;42.070;24.752;2023-05-25T00:05:12;98849.00;;;16.83;87.94
10948;BME280;5526;42.070;24.752;2023-05-25T00:07:39;98861.69;;;16.86;87.55
10948;BME280;5526;42.070;24.752;2023-05-25T00:10:08;98858.03;;;16.82;87.32
10948;BME280;5526;42.070;24.752;2023-05-25T00:12:35;98863.28;;;16.73;88.44
10948;BME280;5526;42.070;24.752;2023-05-25T00:15:03;98851.28;;;16.62;90.04
10948;BME280;5526;42.070;24.752;2023-05-25T00:17:30;98855.59;;;16.58;90.55
10948;BME280;5526;42.070;24.752;2023-05-25T00:19:58;98844.47;;;16.56;91.09
10948;BME280;5526;42.070;24.752;2023-05-25T00:22:32;98846.84;;;16.58;90.93
10948;BME280;5526;42.070;24.752;2023-05-25T00:24:59;98842.44;;;16.53;90.83
10948;BME280;5526;42.070;24.752;2023-05-25T00:27:28;98844.47;;;16.56;91.09
10948;BME280;5526;42.070;24.752;2023-05-25T00:29:55;98844.75;;;16.55;89.91
10948;BME280;5526;42.070;24.752;2023-05-25T00:32:23;98851.06;;;16.59;88.88
10948;BME280;5526;42.070;24.752;2023-05-25T00:34:50;98853.13;;;16.62;88.68
10948;BME280;5526;42.070;24.752;2023-05-25T00:37:17;98845.38;;;16.65;88.32
10948;BME280;5526;42.070;24.752;2023-05-25T00:39:44;98841.63;;;16.66;88.69
10948;BME280;5526;42.070;24.752;2023-05-25T00:42:11;98854.91;;;16.66;88.97
10948;BME280;5526;42.070;24.752;2023-05-25T00:44:41;98844.97;;;16.58;89.46
10948;BME280;5526;42.070;24.752;2023-05-25T00:47:08;98837.59;;;16.55;90.17
10948;BME280;5526;42.070;24.752;2023-05-25T00:49:36;98843.31;;;16.49;90.61
10948;BME280;5526;42.070;24.752;2023-05-25T00:52:03;98850.69;;;16.52;90.26
10948;BME280;5526;42.070;24.752;2023-05-25T00:54:30;98849.41;;;16.49;90.04
10948;BME280;5526;42.070;24.752;2023-05-25T00:57:01;98847.81;;;16.48;90.03
10948;BME280;5526;42.070;24.752;2023-05-25T00:59:32;98846.84;;;16.44;90.70
10948;BME280;5526;42.070;24.752;2023-05-25T01:02:03;98844.19;;;16.44;90.43
10948;BME280;5526;42.070;24.752;2023-05-25T01:04:34;98838.88;;;16.44;90.11
10948;BME280;5526;42.070;24.752;2023-05-25T01:07:03;98838.38;;;16.42;90.00
10948;BME280;5526;42.070;24.752;2023-05-25T01:09:33;98846.34;;;16.42;89.78
10948;BME280;5526;42.070;24.752;2023-05-25T01:12:02;98841.34;;;16.41;89.83
10948;BME280;5526;42.070;24.752;2023-05-25T01:14:30;98838.75;;;16.36;90.18
10948;BME280;5526;42.070;24.752;2023-05-25T01:16:58;98842.75;;;16.33;90.45
10948;BME280;5526;42.070;24.752;2023-05-25T01:19:29;98843.44;;;16.25;91.58
10948;BME280;5526;42.070;24.752;2023-05-25T01:22:03;98844.13;;;16.31;90.06
10948;BME280;5526;42.070;24.752;2023-05-25T01:24:33;98841.09;;;16.37;89.67
10948;BME280;5526;42.070;24.752;2023-05-25T01:27:11;98838.38;;;16.42;89.98
10948;BME280;5526;42.070;24.752;2023-05-25T01:29:42;98833.13;;;16.37;90.65
10948;BME280;5526;42.070;24.752;2023-05-25T01:32:11;98833.44;;;16.36;91.26
10948;BME280;5526;42.070;24.752;2023-05-25T01:34:40;98826.94;;;16.28;92.03
10948;BME280;5526;42.070;24.752;2023-05-25T01:37:10;98825.84;;;16.29;92.08
10948;BME280;5526;42.070;24.752;2023-05-25T01:39:38;98826.94;;;16.28;92.50
10948;BME280;5526;42.070;24.752;2023-05-25T01:42:06;98824.66;;;16.22;92.91
10948;BME280;5526;42.070;24.752;2023-05-25T01:44:33;98825.53;;;16.17;93.57
10948;BME280;5526;42.070;24.752;2023-05-25T01:47:04;98824.25;;;16.15;93.74
10948;BME280;5526;42.070;24.752;2023-05-25T01:49:41;98827.50;;;16.12;94.24
10948;BME280;5526;42.070;24.752;2023-05-25T01:52:17;98829.09;;;16.13;94.21
10948;BME280;5526;42.070;24.752;2023-05-25T01:54:51;98831.13;;;16.16;93.39
10948;BME280;5526;42.070;24.752;2023-05-25T01:57:19;98828.00;;;16.14;93.29
10948;BME280;5526;42.070;24.752;2023-05-25T01:59:47;98832.72;;;16.17;93.04
10948;BME280;5526;42.070;24.752;2023-05-25T02:02:17;98832.91;;;16.20;93.23
10948;BME280;5526;42.070;24.752;2023-05-25T02:04:45;98845.00;;;16.13;93.81
10948;BME280;5526;42.070;24.752;2023-05-25T02:07:14;98840.56;;;16.08;94.45
10948;BME280;5526;42.070;24.752;2023-05-25T02:09:41;98843.22;;;16.08;94.89
10948;BME280;5526;42.070;24.752;2023-05-25T02:12:08;98848.53;;;16.08;95.21
10948;BME280;5526;42.070;24.752;2023-05-25T02:14:35;98842.34;;;15.99;95.24
10948;BME280;5526;42.070;24.752;2023-05-25T02:17:02;98843.00;;;15.91;96.27
10948;BME280;5526;42.070;24.752;2023-05-25T02:19:29;98844.56;;;15.92;96.07
10948;BME280;5526;42.070;24.752;2023-05-25T02:21:57;98845.16;;;15.89;95.84
10948;BME280;5526;42.070;24.752;2023-05-25T02:24:25;98844.06;;;15.90;95.73
10948;BME280;5526;42.070;24.752;2023-05-25T02:26:52;98847.78;;;15.89;95.56
10948;BME280;5526;42.070;24.752;2023-05-25T02:29:19;98845.16;;;15.89;95.20
10948;BME280;5526;42.070;24.752;2023-05-25T02:31:46;98850.44;;;15.89;94.51
10948;BME280;5526;42.070;24.752;2023-05-25T02:34:13;98852.63;;;15.87;94.61
10948;BME280;5526;42.070;24.752;2023-05-25T02:36:41;98856.13;;;15.83;95.37
10948;BME280;5526;42.070;24.752;2023-05-25T02:39:10;98852.69;;;15.82;95.11
10948;BME280;5526;42.070;24.752;2023-05-25T02:41:38;98861.72;;;15.81;94.98
10948;BME280;5526;42.070;24.752;2023-05-25T02:44:05;98861.72;;;15.81;95.73
10948;BME280;5526;42.070;24.752;2023-05-25T02:46:32;98851.13;;;15.81;95.86
10948;BME280;5526;42.070;24.752;2023-05-25T02:49:00;98850.41;;;15.76;95.91
10948;BME280;5526;42.070;24.752;2023-05-25T02:51:27;98852.63;;;15.69;96.40
10948;BME280;5526;42.070;24.752;2023-05-25T02:53:54;98856.75;;;15.61;96.90
10948;BME280;5526;42.070;24.752;2023-05-25T02:56:21;98860.19;;;15.62;96.79
10948;BME280;5526;42.070;24.752;2023-05-25T02:58:49;98857.66;;;15.70;96.80
10948;BME280;5526;42.070;24.752;2023-05-25T03:01:17;98834.25;;;15.59;96.90
10948;BME280;5526;42.070;24.752;2023-05-25T03:03:44;98867.75;;;15.87;96.26
10948;BME280;5526;42.070;24.752;2023-05-25T03:06:13;98871.97;;;15.88;96.52
10948;BME280;5526;42.070;24.752;2023-05-25T03:08:40;98872.19;;;15.91;96.66
10948;BME280;5526;42.070;24.752;2023-05-25T03:11:07;98865.72;;;15.97;96.46
10948;BME280;5526;42.070;24.752;2023-05-25T03:13:34;98870.28;;;16.10;96.23
10948;BME280;5526;42.070;24.752;2023-05-25T03:16:03;98865.97;;;16.14;96.21
10948;BME280;5526;42.070;24.752;2023-05-25T03:18:30;98873.97;;;16.28;95.81
10948;BME280;5526;42.070;24.752;2023-05-25T03:20:57;98879.00;;;16.43;95.56
10948;BME280;5526;42.070;24.752;2023-05-25T03:23:24;98880.09;;;16.55;94.92
10948;BME280;5526;42.070;24.752;2023-05-25T03:25:51;98873.31;;;16.63;95.05
10948;BME280;5526;42.070;24.752;2023-05-25T03:28:18;98882.38;;;16.75;94.86
10948;BME280;5526;42.070;24.752;2023-05-25T03:30:45;98892.13;;;16.93;94.96
10948;BME280;5526;42.070;24.752;2023-05-25T03:33:14;98882.44;;;17.11;94.58
10948;BME280;5526;42.070;24.752;2023-05-25T03:35:41;98887.06;;;17.19;94.84
10948;BME280;5526;42.070;24.752;2023-05-25T03:38:08;98891.84;;;17.31;93.31
10948;BME280;5526;42.070;24.752;2023-05-25T03:40:35;98887.44;;;17.26;93.12
10948;BME280;5526;42.070;24.752;2023-05-25T03:43:02;98890.00;;;17.18;93.11
10948;BME280;5526;42.070;24.752;2023-05-25T03:45:29;98882.13;;;17.26;92.99
10948;BME280;5526;42.070;24.752;2023-05-25T03:47:56;98877.53;;;17.40;92.84
10948;BME280;5526;42.070;24.752;2023-05-25T03:50:24;98889.47;;;17.43;92.97
10948;BME280;5526;42.070;24.752;2023-05-25T03:52:51;98880.91;;;17.46;93.36
10948;BME280;5526;42.070;24.752;2023-05-25T03:55:18;98885.22;;;17.55;92.95
10948;BME280;5526;42.070;24.752;2023-05-25T03:57:45;98880.44;;;17.66;92.71
10948;BME280;5526;42.070;24.752;2023-05-25T04:00:13;98886.00;;;17.56;92.85
10948;BME280;5526;42.070;24.752;2023-05-25T04:02:41;98884.56;;;17.36;94.47
10948;BME280;5526;42.070;24.752;2023-05-25T04:05:08;98885.63;;;17.49;93.85
10948;BME280;5526;42.070;24.752;2023-05-25T04:07:37;98886.25;;;17.68;93.13
10948;BME280;5526;42.070;24.752;2023-05-25T04:10:06;98881.56;;;17.87;91.87
10948;BME280;5526;42.070;24.752;2023-05-25T04:12:33;98883.72;;;17.85;91.52
10948;BME280;5526;42.070;24.752;2023-05-25T04:15:00;98887.53;;;17.70;92.02
10948;BME280;5526;42.070;24.752;2023-05-25T04:17:30;98892.19;;;17.65;93.86
10948;BME280;5526;42.070;24.752;2023-05-25T04:19:57;98892.44;;;17.41;96.70
10948;BME280;5526;42.070;24.752;2023-05-25T04:22:24;98894.91;;;17.38;96.82
10948;BME280;5526;42.070;24.752;2023-05-25T04:24:52;98897.38;;;17.34;97.59
10948;BME280;5526;42.070;24.752;2023-05-25T04:27:20;98892.75;;;17.26;99.44
10948;BME280;5526;42.070;24.752;2023-05-25T04:29:47;98900.03;;;17.48;98.40
10948;BME280;5526;42.070;24.752;2023-05-25T04:32:14;98901.84;;;17.61;96.78
10948;BME280;5526;42.070;24.752;2023-05-25T04:34:43;98902.66;;;17.83;95.49
10948;BME280;5526;42.070;24.752;2023-05-25T04:37:11;98911.09;;;17.99;94.11
10948;BME280;5526;42.070;24.752;2023-05-25T04:39:38;98904.66;;;18.00;92.92
10948;BME280;5526;42.070;24.752;2023-05-25T04:42:07;98900.72;;;17.97;92.83
10948;BME280;5526;42.070;24.752;2023-05-25T04:44:34;98908.66;;;18.11;92.44
10948;BME280;5526;42.070;24.752;2023-05-25T04:47:02;98907.41;;;18.17;91.73
10948;BME280;5526;42.070;24.752;2023-05-25T04:49:29;98906.09;;;18.28;91.52
10948;BME280;5526;42.070;24.752;2023-05-25T04:51:56;98904.47;;;18.49;91.38
10948;BME280;5526;42.070;24.752;2023-05-25T04:54:23;98909.66;;;18.45;92.13
10948;BME280;5526;42.070;24.752;2023-05-25T04:56:50;98906.00;;;18.72;92.15
10948;BME280;5526;42.070;24.752;2023-05-25T04:59:19;98904.94;;;18.81;92.53
10948;BME280;5526;42.070;24.752;2023-05-25T05:01:46;98908.56;;;18.85;92.16
10948;BME280;5526;42.070;24.752;2023-05-25T05:04:13;98905.00;;;19.07;90.89
10948;BME280;5526;42.070;24.752;2023-05-25T05:06:41;98911.25;;;18.94;90.11
10948;BME280;5526;42.070;24.752;2023-05-25T05:09:08;98909.19;;;18.82;90.98
10948;BME280;5526;42.070;24.752;2023-05-25T05:11:35;98906.53;;;18.91;90.63
10948;BME280;5526;42.070;24.752;2023-05-25T05:14:02;98907.09;;;19.18;89.59
10948;BME280;5526;42.070;24.752;2023-05-25T05:16:30;98901.50;;;19.62;87.36
10948;BME280;5526;42.070;24.752;2023-05-25T05:18:59;98894.59;;;19.87;86.67
10948;BME280;5526;42.070;24.752;2023-05-25T05:21:27;98893.28;;;20.35;85.15
10948;BME280;5526;42.070;24.752;2023-05-25T05:23:54;98896.63;;;20.61;82.46
10948;BME280;5526;42.070;24.752;2023-05-25T05:26:22;98892.31;;;20.40;84.63
10948;BME280;5526;42.070;24.752;2023-05-25T05:28:49;98903.19;;;20.35;84.77
10948;BME280;5526;42.070;24.752;2023-05-25T05:31:17;98906.84;;;19.88;84.22
10948;BME280;5526;42.070;24.752;2023-05-25T05:33:46;98908.75;;;19.70;84.66
10948;BME280;5526;42.070;24.752;2023-05-25T05:36:13;98905.91;;;19.75;85.78
10948;BME280;5526;42.070;24.752;2023-05-25T05:38:40;98893.50;;;19.88;84.95
10948;BME280;5526;42.070;24.752;2023-05-25T05:41:07;98907.00;;;19.83;83.77
10948;BME280;5526;42.070;24.752;2023-05-25T05:43:39;98903.84;;;20.15;83.15
10948;BME280;5526;42.070;24.752;2023-05-25T05:46:07;98910.75;;;20.16;82.41
10948;BME280;5526;42.070;24.752;2023-05-25T05:48:35;98914.84;;;20.05;80.81
10948;BME280;5526;42.070;24.752;2023-05-25T05:51:04;98920.50;;;19.95;81.40
10948;BME280;5526;42.070;24.752;2023-05-25T05:53:31;98911.88;;;20.23;81.16
10948;BME280;5526;42.070;24.752;2023-05-25T05:56:00;98923.53;;;20.65;78.34
10948;BME280;5526;42.070;24.752;2023-05-25T05:58:27;98923.88;;;21.01;77.91
10948;BME280;5526;42.070;24.752;2023-05-25T06:00:55;98921.53;;;21.49;77.76
10948;BME280;5526;42.070;24.752;2023-05-25T06:03:24;98924.81;;;21.75;76.19
10948;BME280;5526;42.070;24.752;2023-05-25T06:05:52;98923.06;;;21.50;76.45
10948;BME280;5526;42.070;24.752;2023-05-25T06:08:20;98919.19;;;21.89;76.03
10948;BME280;5526;42.070;24.752;2023-05-25T06:10:47;98926.91;;;21.90;75.26
10948;BME280;5526;42.070;24.752;2023-05-25T06:13:14;98914.78;;;22.37;73.97
10948;BME280;5526;42.070;24.752;2023-05-25T06:15:42;98924.13;;;22.76;71.51
10948;BME280;5526;42.070;24.752;2023-05-25T06:18:09;98926.00;;;22.51;73.62
10948;BME280;5526;42.070;24.752;2023-05-25T06:20:36;98925.13;;;22.59;73.52
10948;BME280;5526;42.070;24.752;2023-05-25T06:23:03;98926.25;;;22.94;71.98
10948;BME280;5526;42.070;24.752;2023-05-25T06:25:31;98920.56;;;23.08;71.36
10948;BME280;5526;42.070;24.752;2023-05-25T06:27:58;98930.53;;;23.19;71.84
10948;BME280;5526;42.070;24.752;2023-05-25T06:30:25;98939.94;;;23.25;72.70
10948;BME280;5526;42.070;24.752;2023-05-25T06:32:52;98931.84;;;23.01;73.68
10948;BME280;5526;42.070;24.752;2023-05-25T06:35:19;98944.50;;;23.49;71.85
10948;BME280;5526;42.070;24.752;2023-05-25T06:37:47;98951.88;;;23.52;71.58
10948;BME280;5526;42.070;24.752;2023-05-25T06:40:14;98950.97;;;23.99;69.93
10948;BME280;5526;42.070;24.752;2023-05-25T06:42:43;98951.41;;;24.29;69.93
10948;BME280;5526;42.070;24.752;2023-05-25T06:45:10;98943.66;;;24.55;68.71
10948;BME280;5526;42.070;24.752;2023-05-25T06:47:37;98938.63;;;24.53;69.08
10948;BME280;5526;42.070;24.752;2023-05-25T06:50:05;98941.84;;;24.75;67.72
10948;BME280;5526;42.070;24.752;2023-05-25T06:52:33;98932.31;;;24.93;66.95
10948;BME280;5526;42.070;24.752;2023-05-25T06:55:00;98938.13;;;24.95;66.14
10948;BME280;5526;42.070;24.752;2023-05-25T06:57:29;98935.84;;;25.62;64.17
10948;BME280;5526;42.070;24.752;2023-05-25T06:59:58;98935.50;;;25.83;64.42
10948;BME280;5526;42.070;24.752;2023-05-25T07:02:26;98938.59;;;26.00;62.47
10948;BME280;5526;42.070;24.752;2023-05-25T07:04:53;98934.72;;;25.63;62.45
10948;BME280;5526;42.070;24.752;2023-05-25T07:07:20;98938.53;;;25.62;62.66
10948;BME280;5526;42.070;24.752;2023-05-25T07:09:47;98933.09;;;25.78;61.07
10948;BME280;5526;42.070;24.752;2023-05-25T07:12:14;98936.38;;;26.06;60.38
10948;BME280;5526;42.070;24.752;2023-05-25T07:14:41;98930.69;;;25.92;60.61
10948;BME280;5526;42.070;24.752;2023-05-25T07:17:14;98937.06;;;25.84;60.96
10948;BME280;5526;42.070;24.752;2023-05-25T07:19:41;98939.59;;;26.11;58.85
10948;BME280;5526;42.070;24.752;2023-05-25T07:22:09;98930.91;;;26.02;59.03
10948;BME280;5526;42.070;24.752;2023-05-25T07:24:36;98937.22;;;26.29;58.29
10948;BME280;5526;42.070;24.752;2023-05-25T07:27:03;98928.78;;;26.53;57.80
10948;BME280;5526;42.070;24.752;2023-05-25T07:29:31;98933.06;;;26.76;57.69
10948;BME280;5526;42.070;24.752;2023-05-25T07:31:58;98930.31;;;26.73;57.13
10948;BME280;5526;42.070;24.752;2023-05-25T07:34:27;98928.50;;;26.39;56.20
10948;BME280;5526;42.070;24.752;2023-05-25T07:36:54;98929.16;;;26.74;56.35
10948;BME280;5526;42.070;24.752;2023-05-25T07:39:21;98937.97;;;26.93;54.66
10948;BME280;5526;42.070;24.752;2023-05-25T07:41:48;98932.84;;;27.11;53.40
10948;BME280;5526;42.070;24.752;2023-05-25T07:44:15;98934.72;;;27.07;52.71
10948;BME280;5526;42.070;24.752;2023-05-25T07:46:42;98930.56;;;27.35;51.02
10948;BME280;5526;42.070;24.752;2023-05-25T07:49:09;98933.25;;;27.35;51.09
10948;BME280;5526;42.070;24.752;2023-05-25T07:51:42;98928.81;;;27.50;50.54
10948;BME280;5526;42.070;24.752;2023-05-25T07:54:09;98928.38;;;27.48;50.78
10948;BME280;5526;42.070;24.752;2023-05-25T07:56:36;98925.41;;;27.82;49.65
10948;BME280;5526;42.070;24.752;2023-05-25T07:59:03;98919.00;;;27.68;49.86
10948;BME280;5526;42.070;24.752;2023-05-25T08:01:31;98927.38;;;27.30;48.64
10948;BME280;5526;42.070;24.752;2023-05-25T08:03:58;98927.84;;;27.35;48.67
10948;BME280;5526;42.070;24.752;2023-05-25T08:06:25;98920.84;;;27.90;47.89
10948;BME280;5526;42.070;24.752;2023-05-25T08:08:53;98931.63;;;28.23;46.69
10948;BME280;5526;42.070;24.752;2023-05-25T08:11:22;98924.78;;;28.69;46.20
10948;BME280;5526;42.070;24.752;2023-05-25T08:13:51;98929.63;;;28.13;45.87
10948;BME280;5526;42.070;24.752;2023-05-25T08:16:18;98930.06;;;27.85;45.91
10948;BME280;5526;42.070;24.752;2023-05-25T08:18:45;98920.59;;;27.43;47.07
10948;BME280;5526;42.070;24.752;2023-05-25T08:21:12;98926.72;;;27.14;48.40
10948;BME280;5526;42.070;24.752;2023-05-25T08:23:40;98924.47;;;27.42;47.66
10948;BME280;5526;42.070;24.752;2023-05-25T08:26:10;98922.00;;;27.59;47.67
10948;BME280;5526;42.070;24.752;2023-05-25T08:28:37;98921.94;;;27.85;46.93
10948;BME280;5526;42.070;24.752;2023-05-25T08:31:04;98923.78;;;27.81;47.45
10948;BME280;5526;42.070;24.752;2023-05-25T08:33:31;98925.75;;;27.51;46.91
10948;BME280;5526;42.070;24.752;2023-05-25T08:35:58;98924.16;;;26.98;48.19
10948;BME280;5526;42.070;24.752;2023-05-25T08:38:25;98919.19;;;28.52;44.20
10948;BME280;5526;42.070;24.752;2023-05-25T08:41:02;98920.88;;;27.64;47.43
10948;BME280;5526;42.070;24.752;2023-05-25T08:43:32;98910.19;;;27.45;48.79
10948;BME280;5526;42.070;24.752;2023-05-25T08:46:03;98927.50;;;27.14;48.28
10948;BME280;5526;42.070;24.752;2023-05-25T08:48:32;98922.50;;;27.16;48.58
10948;BME280;5526;42.070;24.752;2023-05-25T08:51:05;98917.63;;;27.22;48.75
10948;BME280;5526;42.070;24.752;2023-05-25T08:53:34;98915.69;;;27.52;48.17
10948;BME280;5526;42.070;24.752;2023-05-25T08:56:06;98915.19;;;27.43;47.67
10948;BME280;5526;42.070;24.752;2023-05-25T08:58:41;98912.63;;;27.53;47.35
10948;BME280;5526;42.070;24.752;2023-05-25T09:01:14;98905.91;;;27.73;48.98
10948;BME280;5526;42.070;24.752;2023-05-25T09:03:44;98920.50;;;27.95;47.76
10948;BME280;5526;42.070;24.752;2023-05-25T09:06:13;98904.84;;;28.48;45.60
10948;BME280;5526;42.070;24.752;2023-05-25T09:08:41;98916.22;;;29.11;44.37
10948;BME280;5526;42.070;24.752;2023-05-25T09:11:09;98907.69;;;29.09;45.59
10948;BME280;5526;42.070;24.752;2023-05-25T09:13:39;98914.13;;;28.90;45.09
10948;BME280;5526;42.070;24.752;2023-05-25T09:16:06;98912.28;;;29.01;44.82
10948;BME280;5526;42.070;24.752;2023-05-25T09:18:33;98904.63;;;29.17;44.53
10948;BME280;5526;42.070;24.752;2023-05-25T09:21:00;98901.31;;;29.45;43.27
10948;BME280;5526;42.070;24.752;2023-05-25T09:23:28;98890.13;;;29.57;42.49
10948;BME280;5526;42.070;24.752;2023-05-25T09:25:56;98895.00;;;29.27;42.95
10948;BME280;5526;42.070;24.752;2023-05-25T09:28:23;98891.00;;;29.68;42.80
10948;BME280;5526;42.070;24.752;2023-05-25T09:30:52;98891.44;;;29.84;43.10
10948;BME280;5526;42.070;24.752;2023-05-25T09:33:19;98892.63;;;29.97;41.19
10948;BME280;5526;42.070;24.752;2023-05-25T09:35:47;98898.53;;;30.20;40.88
10948;BME280;5526;42.070;24.752;2023-05-25T09:38:15;98892.72;;;30.21;39.36
10948;BME280;5526;42.070;24.752;2023-05-25T09:40:42;98892.59;;;29.90;39.22
10948;BME280;5526;42.070;24.752;2023-05-25T09:43:10;98882.94;;;29.99;39.19
10948;BME280;5526;42.070;24.752;2023-05-25T09:45:38;98884.16;;;30.12;38.08
10948;BME280;5526;42.070;24.752;2023-05-25T09:48:07;98883.47;;;30.54;36.43
10948;BME280;5526;42.070;24.752;2023-05-25T09:50:35;98883.09;;;30.97;35.66
10948;BME280;5526;42.070;24.752;2023-05-25T09:53:02;98875.69;;;31.05;36.96
10948;BME280;5526;42.070;24.752;2023-05-25T09:55:29;98872.22;;;30.83;37.94
10948;BME280;5526;42.070;24.752;2023-05-25T09:57:56;98854.75;;;30.56;38.12
10948;BME280;5526;42.070;24.752;2023-05-25T10:00:24;98870.25;;;30.59;36.83
10948;BME280;5526;42.070;24.752;2023-05-25T10:02:52;98859.03;;;30.71;35.27
10948;BME280;5526;42.070;24.752;2023-05-25T10:05:20;98864.44;;;30.75;34.83
10948;BME280;5526;42.070;24.752;2023-05-25T10:07:50;98853.91;;;31.19;34.43
10948;BME280;5526;42.070;24.752;2023-05-25T10:10:19;98848.44;;;31.22;35.46
10948;BME280;5526;42.070;24.752;2023-05-25T10:12:56;98839.97;;;30.85;35.37
10948;BME280;5526;42.070;24.752;2023-05-25T10:15:23;98841.13;;;31.02;36.05
10948;BME280;5526;42.070;24.752;2023-05-25T10:17:52;98837.06;;;31.55;35.19
10948;BME280;5526;42.070;24.752;2023-05-25T10:20:22;98836.47;;;31.02;34.37
10948;BME280;5526;42.070;24.752;2023-05-25T10:22:52;98837.63;;;31.01;35.22
10948;BME280;5526;42.070;24.752;2023-05-25T10:25:26;98842.66;;;31.24;36.18
10948;BME280;5526;42.070;24.752;2023-05-25T10:27:57;98846.59;;;30.46;36.02
10948;BME280;5526;42.070;24.752;2023-05-25T10:30:25;98838.69;;;29.74;36.85
10948;BME280;5526;42.070;24.752;2023-05-25T10:32:53;98841.13;;;30.14;36.04
10948;BME280;5526;42.070;24.752;2023-05-25T10:35:22;98854.31;;;31.10;34.61
10948;BME280;5526;42.070;24.752;2023-05-25T10:37:51;98862.81;;;31.37;34.09
10948;BME280;5526;42.070;24.752;2023-05-25T10:40:19;98861.69;;;31.13;33.93
10948;BME280;5526;42.070;24.752;2023-05-25T10:42:49;98861.19;;;31.50;32.90
10948;BME280;5526;42.070;24.752;2023-05-25T10:45:16;98862.00;;;31.36;33.70
10948;BME280;5526;42.070;24.752;2023-05-25T10:47:44;98854.34;;;30.93;33.63
10948;BME280;5526;42.070;24.752;2023-05-25T10:50:19;98852.34;;;31.21;34.00
10948;BME280;5526;42.070;24.752;2023-05-25T10:52:58;98842.56;;;31.48;34.51
10948;BME280;5526;42.070;24.752;2023-05-25T10:55:26;98844.63;;;31.02;35.38
10948;BME280;5526;42.070;24.752;2023-05-25T10:58:09;98852.00;;;30.28;35.58
10948;BME280;5526;42.070;24.752;2023-05-25T11:00:37;98838.81;;;30.20;36.28
10948;BME280;5526;42.070;24.752;2023-05-25T11:03:04;98836.78;;;29.89;36.99
10948;BME280;5526;42.070;24.752;2023-05-25T11:05:37;98847.13;;;29.55;36.13
10948;BME280;5526;42.070;24.752;2023-05-25T11:08:07;98843.19;;;29.46;36.71
10948;BME280;5526;42.070;24.752;2023-05-25T11:10:51;98838.03;;;28.62;40.69
10948;BME280;5526;42.070;24.752;2023-05-25T11:13:31;98841.63;;;28.30;42.46
10948;BME280;5526;42.070;24.752;2023-05-25T11:16:22;98846.97;;;27.82;43.70
10948;BME280;5526;42.070;24.752;2023-05-25T11:19:01;98842.91;;;27.36;43.49
10948;BME280;5526;42.070;24.752;2023-05-25T11:21:42;98846.88;;;27.46;41.83
10948;BME280;5526;42.070;24.752;2023-05-25T11:24:16;98850.44;;;27.24;44.77
10948;BME280;5526;42.070;24.752;2023-05-25T11:26:55;98843.72;;;27.14;46.74
10948;BME280;5526;42.070;24.752;2023-05-25T11:29:22;98853.38;;;27.15;47.66
10948;BME280;5526;42.070;24.752;2023-05-25T11:31:52;98859.78;;;26.78;50.84
10948;BME280;5526;42.070;24.752;2023-05-25T11:34:23;98858.81;;;26.67;52.22
10948;BME280;5526;42.070;24.752;2023-05-25T11:36:55;98861.84;;;26.17;56.39
10948;BME280;5526;42.070;24.752;2023-05-25T11:39:27;98856.59;;;25.86;57.68
10948;BME280;5526;42.070;24.752;2023-05-25T11:41:57;98852.81;;;26.77;54.75
10948;BME280;5526;42.070;24.752;2023-05-25T11:44:29;98851.25;;;25.89;57.76
10948;BME280;5526;42.070;24.752;2023-05-25T11:47:00;98857.66;;;25.62;58.30
10948;BME280;5526;42.070;24.752;2023-05-25T11:49:29;98848.03;;;25.42;58.43
10948;BME280;5526;42.070;24.752;2023-05-25T11:51:56;98846.88;;;25.43;59.03
10948;BME280;5526;42.070;24.752;2023-05-25T11:54:25;98845.19;;;25.35;60.14
10948;BME280;5526;42.070;24.752;2023-05-25T11:56:54;98845.88;;;25.51;59.68
10948;BME280;5526;42.070;24.752;2023-05-25T11:59:24;98845.38;;;25.65;58.48
10948;BME280;5526;42.070;24.752;2023-05-25T12:01:59;98847.06;;;26.33;55.96
10948;BME280;5526;42.070;24.752;2023-05-25T12:04:27;98838.66;;;26.16;57.35
10948;BME280;5526;42.070;24.752;2023-05-25T12:07:00;98843.19;;;26.31;57.31
10948;BME280;5526;42.070;24.752;2023-05-25T12:09:28;98848.69;;;26.38;56.25
10948;BME280;5526;42.070;24.752;2023-05-25T12:11:57;98838.53;;;26.54;55.26
10948;BME280;5526;42.070;24.752;2023-05-25T12:14:25;98841.88;;;26.66;55.50
10948;BME280;5526;42.070;24.752;2023-05-25T12:16:52;98835.78;;;26.73;55.28
10948;BME280;5526;42.070;24.752;2023-05-25T12:19:20;98834.03;;;26.84;55.16
10948;BME280;5526;42.070;24.752;2023-05-25T12:21:48;98826.06;;;26.94;55.72
10948;BME280;5526;42.070;24.752;2023-05-25T12:24:17;98825.13;;;27.09;54.52
10948;BME280;5526;42.070;24.752;2023-05-25T12:26:48;98828.44;;;27.22;54.01
10948;BME280;5526;42.070;24.752;2023-05-25T12:29:16;98829.00;;;27.38;53.35
10948;BME280;5526;42.070;24.752;2023-05-25T12:31:44;98831.69;;;27.67;52.71
10948;BME280;5526;42.070;24.752;2023-05-25T12:34:13;98821.53;;;27.90;51.85
10948;BME280;5526;42.070;24.752;2023-05-25T12:36:43;98828.38;;;28.21;50.96
10948;BME280;5526;42.070;24.752;2023-05-25T12:39:12;98829.63;;;28.31;49.85
10948;BME280;5526;42.070;24.752;2023-05-25T12:41:47;98825.72;;;28.68;49.92
10948;BME280;5526;42.070;24.752;2023-05-25T12:44:20;98833.56;;;28.87;48.86
10948;BME280;5526;42.070;24.752;2023-05-25T12:46:48;98823.75;;;29.26;49.33
10948;BME280;5526;42.070;24.752;2023-05-25T12:49:27;98827.75;;;29.57;46.96
10948;BME280;5526;42.070;24.752;2023-05-25T12:51:55;98828.53;;;29.57;47.82
10948;BME280;5526;42.070;24.752;2023-05-25T12:54:42;98817.66;;;29.54;44.52
10948;BME280;5526;42.070;24.752;2023-05-25T12:57:11;98828.56;;;29.61;43.73
10948;BME280;5526;42.070;24.752;2023-05-25T12:59:41;98827.47;;;29.72;42.48
10948;BME280;5526;42.070;24.752;2023-05-25T13:02:10;98825.13;;;29.78;42.28
10948;BME280;5526;42.070;24.752;2023-05-25T13:04:38;98825.56;;;30.11;41.09
10948;BME280;5526;42.070;24.752;2023-05-25T13:07:07;98827.97;;;30.44;41.06